sensor_id;sensor_type;location;lat;lon;timestamp;temperature;humidity
6756;DHT22;3415;51.148;7.014;2022-12-18T00:02:20;-3.00;1.00
6756;DHT22;3415;51.148;7.014;2022-12-18T00:04:48;-3.10;1.00
6756;DHT22;3415;51.148;7.014;2022-12-18T00:09:42;-3.00;1.00
6756;DHT22;3415;51.148;7.014;2022-12-18T00:12:09;-3.10;1.00
6756;DHT22;3415;51.148;7.014;2022-12-18T00:14:36;-3.20;1.00
6756;DHT22;3415;51.148;7.014;2022-12-18T00:17:03;-3.10;1.00
6756;DHT22;3415;51.148;7.014;2022-12-18T00:19:30;-3.20;1.00
6756;DHT22;3415;51.148;7.014;2022-12-18T00:21:58;-3.20;1.00
6756;DHT22;3415;51.148;7.014;2022-12-18T00:24:25;-3.20;1.00
6756;DHT22;3415;51.148;7.014;2022-12-18T00:26:51;-3.20;1.00
6756;DHT22;3415;51.148;7.014;2022-12-18T00:29:18;-3.30;1.00
6756;DHT22;3415;51.148;7.014;2022-12-18T00:31:45;-3.30;1.00
6756;DHT22;3415;51.148;7.014;2022-12-18T00:34:12;-3.30;1.00
6756;DHT22;3415;51.148;7.014;2022-12-18T00:36:40;-3.30;1.00
6756;DHT22;3415;51.148;7.014;2022-12-18T00:39:10;-3.30;1.00
6756;DHT22;3415;51.148;7.014;2022-12-18T00:41:37;-3.30;1.00
6756;DHT22;3415;51.148;7.014;2022-12-18T00:44:21;-3.30;1.00
6756;DHT22;3415;51.148;7.014;2022-12-18T00:46:48;-3.30;1.00
6756;DHT22;3415;51.148;7.014;2022-12-18T00:49:16;-3.30;1.00
6756;DHT22;3415;51.148;7.014;2022-12-18T00:51:43;-3.30;1.00
6756;DHT22;3415;51.148;7.014;2022-12-18T00:54:11;-3.30;1.00
6756;DHT22;3415;51.148;7.014;2022-12-18T00:56:38;-3.30;1.00
6756;DHT22;3415;51.148;7.014;2022-12-18T00:59:06;-3.30;1.00
6756;DHT22;3415;51.148;7.014;2022-12-18T01:01:32;-3.30;1.00
6756;DHT22;3415;51.148;7.014;2022-12-18T01:04:00;-3.40;1.00
6756;DHT22;3415;51.148;7.014;2022-12-18T01:06:27;-3.40;1.00
6756;DHT22;3415;51.148;7.014;2022-12-18T01:08:54;-3.30;1.00
6756;DHT22;3415;51.148;7.014;2022-12-18T01:11:23;-3.40;1.00
6756;DHT22;3415;51.148;7.014;2022-12-18T01:13:51;-3.30;1.00
6756;DHT22;3415;51.148;7.014;2022-12-18T01:16:18;-3.40;1.00
6756;DHT22;3415;51.148;7.014;2022-12-18T01:18:45;-3.40;1.00
6756;DHT22;3415;51.148;7.014;2022-12-18T01:21:13;-3.40;1.00
6756;DHT22;3415;51.148;7.014;2022-12-18T01:23:40;-3.40;1.00
6756;DHT22;3415;51.148;7.014;2022-12-18T01:26:09;-3.40;1.00
6756;DHT22;3415;51.148;7.014;2022-12-18T01:28:38;-3.50;1.00
6756;DHT22;3415;51.148;7.014;2022-12-18T01:31:13;-3.50;1.00
6756;DHT22;3415;51.148;7.014;2022-12-18T01:33:40;-3.50;1.00
6756;DHT22;3415;51.148;7.014;2022-12-18T01:36:13;-3.60;1.00
6756;DHT22;3415;51.148;7.014;2022-12-18T01:38:40;-3.50;1.00
6756;DHT22;3415;51.148;7.014;2022-12-18T01:41:08;-3.50;1.00
6756;DHT22;3415;51.148;7.014;2022-12-18T01:43:52;-3.60;1.00
6756;DHT22;3415;51.148;7.014;2022-12-18T01:46:21;-3.50;1.00
6756;DHT22;3415;51.148;7.014;2022-12-18T01:48:52;-3.50;1.00
6756;DHT22;3415;51.148;7.014;2022-12-18T01:51:20;-3.50;1.00
6756;DHT22;3415;51.148;7.014;2022-12-18T01:53:49;-3.60;1.00
6756;DHT22;3415;51.148;7.014;2022-12-18T01:56:18;-3.60;1.00
6756;DHT22;3415;51.148;7.014;2022-12-18T01:58:54;-3.60;1.00
6756;DHT22;3415;51.148;7.014;2022-12-18T02:01:22;-3.60;1.00
6756;DHT22;3415;51.148;7.014;2022-12-18T02:03:49;-3.70;1.00
6756;DHT22;3415;51.148;7.014;2022-12-18T02:06:20;-3.60;1.00
6756;DHT22;3415;51.148;7.014;2022-12-18T02:09:01;-3.60;1.00
6756;DHT22;3415;51.148;7.014;2022-12-18T02:11:37;-3.60;1.00
6756;DHT22;3415;51.148;7.014;2022-12-18T02:14:14;-3.60;1.00
6756;DHT22;3415;51.148;7.014;2022-12-18T02:16:46;-3.60;1.00
6756;DHT22;3415;51.148;7.014;2022-12-18T02:19:27;-3.60;1.00
6756;DHT22;3415;51.148;7.014;2022-12-18T02:22:08;-3.40;1.00
6756;DHT22;3415;51.148;7.014;2022-12-18T02:24:44;-3.40;1.00
6756;DHT22;3415;51.148;7.014;2022-12-18T02:27:17;-3.40;1.00
6756;DHT22;3415;51.148;7.014;2022-12-18T02:29:49;-3.40;1.00
6756;DHT22;3415;51.148;7.014;2022-12-18T02:32:20;-3.40;1.00
6756;DHT22;3415;51.148;7.014;2022-12-18T02:34:48;-3.30;1.00
6756;DHT22;3415;51.148;7.014;2022-12-18T02:37:18;-3.30;1.00
6756;DHT22;3415;51.148;7.014;2022-12-18T02:39:48;-3.20;1.00
6756;DHT22;3415;51.148;7.014;2022-12-18T02:42:17;-3.20;1.00
6756;DHT22;3415;51.148;7.014;2022-12-18T02:44:46;-3.10;1.00
6756;DHT22;3415;51.148;7.014;2022-12-18T02:47:15;-2.90;1.00
6756;DHT22;3415;51.148;7.014;2022-12-18T02:49:51;-3.00;1.00
6756;DHT22;3415;51.148;7.014;2022-12-18T02:52:28;-3.00;1.00
6756;DHT22;3415;51.148;7.014;2022-12-18T02:55:04;-3.00;1.00
6756;DHT22;3415;51.148;7.014;2022-12-18T02:57:40;-3.00;1.00
6756;DHT22;3415;51.148;7.014;2022-12-18T03:00:11;-3.00;1.00
6756;DHT22;3415;51.148;7.014;2022-12-18T03:02:41;-3.00;1.00
6756;DHT22;3415;51.148;7.014;2022-12-18T03:05:15;-3.10;1.00
6756;DHT22;3415;51.148;7.014;2022-12-18T03:07:49;-3.10;1.00
6756;DHT22;3415;51.148;7.014;2022-12-18T03:10:22;-3.00;1.00
6756;DHT22;3415;51.148;7.014;2022-12-18T03:12:54;-3.10;1.00
6756;DHT22;3415;51.148;7.014;2022-12-18T03:15:25;-3.10;1.00
6756;DHT22;3415;51.148;7.014;2022-12-18T03:17:57;-3.10;1.00
6756;DHT22;3415;51.148;7.014;2022-12-18T03:20:27;-3.10;1.00
6756;DHT22;3415;51.148;7.014;2022-12-18T03:23:01;-3.20;1.00
6756;DHT22;3415;51.148;7.014;2022-12-18T03:25:30;-3.20;1.00
6756;DHT22;3415;51.148;7.014;2022-12-18T03:28:00;-3.20;1.00
6756;DHT22;3415;51.148;7.014;2022-12-18T03:30:29;-3.00;1.00
6756;DHT22;3415;51.148;7.014;2022-12-18T03:33:02;-3.00;1.00
6756;DHT22;3415;51.148;7.014;2022-12-18T03:35:34;-3.00;1.00
6756;DHT22;3415;51.148;7.014;2022-12-18T03:38:02;-3.00;1.00
6756;DHT22;3415;51.148;7.014;2022-12-18T03:40:35;-3.10;1.00
6756;DHT22;3415;51.148;7.014;2022-12-18T03:43:10;-3.10;1.00
6756;DHT22;3415;51.148;7.014;2022-12-18T03:45:48;-3.10;1.00
6756;DHT22;3415;51.148;7.014;2022-12-18T03:48:20;-3.10;1.00
6756;DHT22;3415;51.148;7.014;2022-12-18T03:50:56;-3.00;1.00
6756;DHT22;3415;51.148;7.014;2022-12-18T03:53:35;-3.00;1.00
6756;DHT22;3415;51.148;7.014;2022-12-18T03:56:04;-3.20;1.00
6756;DHT22;3415;51.148;7.014;2022-12-18T03:58:34;-3.20;1.00
6756;DHT22;3415;51.148;7.014;2022-12-18T04:01:04;-3.20;1.00
6756;DHT22;3415;51.148;7.014;2022-12-18T04:03:36;-2.80;1.00
6756;DHT22;3415;51.148;7.014;2022-12-18T04:06:05;-3.20;1.00
6756;DHT22;3415;51.148;7.014;2022-12-18T04:08:33;-3.20;1.00
6756;DHT22;3415;51.148;7.014;2022-12-18T04:11:02;-3.30;1.00
6756;DHT22;3415;51.148;7.014;2022-12-18T04:13:31;-3.20;1.00
6756;DHT22;3415;51.148;7.014;2022-12-18T04:16:00;-3.30;1.00
6756;DHT22;3415;51.148;7.014;2022-12-18T04:20:54;-3.30;1.00
6756;DHT22;3415;51.148;7.014;2022-12-18T04:25:48;-3.20;1.00
6756;DHT22;3415;51.148;7.014;2022-12-18T04:28:14;-3.20;1.00
6756;DHT22;3415;51.148;7.014;2022-12-18T04:30:41;-3.20;1.00
6756;DHT22;3415;51.148;7.014;2022-12-18T04:33:10;-3.20;1.00
6756;DHT22;3415;51.148;7.014;2022-12-18T04:35:37;-3.20;1.00
6756;DHT22;3415;51.148;7.014;2022-12-18T04:38:03;-3.20;1.00
6756;DHT22;3415;51.148;7.014;2022-12-18T04:40:32;-3.10;1.00
6756;DHT22;3415;51.148;7.014;2022-12-18T04:42:58;-3.10;1.00
6756;DHT22;3415;51.148;7.014;2022-12-18T04:45:25;-3.10;1.00
6756;DHT22;3415;51.148;7.014;2022-12-18T04:47:52;-3.00;1.00
6756;DHT22;3415;51.148;7.014;2022-12-18T04:50:20;-3.00;1.00
6756;DHT22;3415;51.148;7.014;2022-12-18T04:52:47;-2.90;1.00
6756;DHT22;3415;51.148;7.014;2022-12-18T04:55:14;-3.00;1.00
6756;DHT22;3415;51.148;7.014;2022-12-18T04:57:40;-2.90;1.00
6756;DHT22;3415;51.148;7.014;2022-12-18T05:00:08;-2.70;1.00
6756;DHT22;3415;51.148;7.014;2022-12-18T05:02:35;-2.90;1.00
6756;DHT22;3415;51.148;7.014;2022-12-18T05:05:02;-2.90;1.00
6756;DHT22;3415;51.148;7.014;2022-12-18T05:07:31;-2.90;1.00
6756;DHT22;3415;51.148;7.014;2022-12-18T05:09:57;-2.90;1.00
6756;DHT22;3415;51.148;7.014;2022-12-18T05:12:24;-2.80;1.00
6756;DHT22;3415;51.148;7.014;2022-12-18T05:14:51;-2.80;1.00
6756;DHT22;3415;51.148;7.014;2022-12-18T05:17:18;-2.80;1.00
6756;DHT22;3415;51.148;7.014;2022-12-18T05:19:45;-2.90;1.00
6756;DHT22;3415;51.148;7.014;2022-12-18T05:22:11;-3.00;1.00
6756;DHT22;3415;51.148;7.014;2022-12-18T05:24:40;-3.00;1.00
6756;DHT22;3415;51.148;7.014;2022-12-18T05:27:06;-3.00;1.00
6756;DHT22;3415;51.148;7.014;2022-12-18T05:29:33;-3.00;1.00
6756;DHT22;3415;51.148;7.014;2022-12-18T05:32:00;-3.00;1.00
6756;DHT22;3415;51.148;7.014;2022-12-18T05:34:27;-3.00;1.00
6756;DHT22;3415;51.148;7.014;2022-12-18T05:36:53;-3.00;1.00
6756;DHT22;3415;51.148;7.014;2022-12-18T05:39:20;-2.90;1.00
6756;DHT22;3415;51.148;7.014;2022-12-18T05:41:48;-2.90;1.00
6756;DHT22;3415;51.148;7.014;2022-12-18T05:44:15;-3.00;1.00
6756;DHT22;3415;51.148;7.014;2022-12-18T05:46:42;-2.80;1.00
6756;DHT22;3415;51.148;7.014;2022-12-18T05:49:09;-2.80;1.00
6756;DHT22;3415;51.148;7.014;2022-12-18T05:51:35;-2.80;1.00
6756;DHT22;3415;51.148;7.014;2022-12-18T05:54:02;-2.70;1.00
6756;DHT22;3415;51.148;7.014;2022-12-18T05:56:29;-2.70;1.00
6756;DHT22;3415;51.148;7.014;2022-12-18T05:58:57;-2.80;1.00
6756;DHT22;3415;51.148;7.014;2022-12-18T06:01:26;-2.80;1.00
6756;DHT22;3415;51.148;7.014;2022-12-18T06:03:53;-2.70;1.00
6756;DHT22;3415;51.148;7.014;2022-12-18T06:06:22;-2.70;1.00
6756;DHT22;3415;51.148;7.014;2022-12-18T06:08:50;-2.80;1.00
6756;DHT22;3415;51.148;7.014;2022-12-18T06:11:18;-2.80;1.00
6756;DHT22;3415;51.148;7.014;2022-12-18T06:13:45;-2.80;1.00
6756;DHT22;3415;51.148;7.014;2022-12-18T06:16:13;-3.00;1.00
6756;DHT22;3415;51.148;7.014;2022-12-18T06:21:07;-2.90;1.00
6756;DHT22;3415;51.148;7.014;2022-12-18T06:23:34;-2.90;1.00
6756;DHT22;3415;51.148;7.014;2022-12-18T06:26:04;-2.90;1.00
6756;DHT22;3415;51.148;7.014;2022-12-18T06:28:31;-3.00;1.00
6756;DHT22;3415;51.148;7.014;2022-12-18T06:33:27;-2.90;1.00
6756;DHT22;3415;51.148;7.014;2022-12-18T06:35:58;-3.00;1.00
6756;DHT22;3415;51.148;7.014;2022-12-18T06:38:25;-2.90;1.00
6756;DHT22;3415;51.148;7.014;2022-12-18T06:40:52;-2.90;1.00
6756;DHT22;3415;51.148;7.014;2022-12-18T06:43:19;-2.80;1.00
6756;DHT22;3415;51.148;7.014;2022-12-18T06:45:46;-2.90;1.00
6756;DHT22;3415;51.148;7.014;2022-12-18T06:48:18;-2.80;1.00
6756;DHT22;3415;51.148;7.014;2022-12-18T06:50:46;-2.90;1.00
6756;DHT22;3415;51.148;7.014;2022-12-18T06:53:13;-2.90;1.00
6756;DHT22;3415;51.148;7.014;2022-12-18T06:55:40;-2.90;1.00
6756;DHT22;3415;51.148;7.014;2022-12-18T06:58:07;-2.90;1.00
6756;DHT22;3415;51.148;7.014;2022-12-18T07:00:34;-2.90;1.00
6756;DHT22;3415;51.148;7.014;2022-12-18T07:03:01;-2.80;1.00
6756;DHT22;3415;51.148;7.014;2022-12-18T07:05:28;-2.80;1.00
6756;DHT22;3415;51.148;7.014;2022-12-18T07:07:56;-2.70;1.00
6756;DHT22;3415;51.148;7.014;2022-12-18T07:10:23;-2.70;1.00
6756;DHT22;3415;51.148;7.014;2022-12-18T07:12:50;-3.20;1.00
6756;DHT22;3415;51.148;7.014;2022-12-18T07:15:16;-2.70;1.00
6756;DHT22;3415;51.148;7.014;2022-12-18T07:17:43;-2.70;1.00
6756;DHT22;3415;51.148;7.014;2022-12-18T07:20:10;-2.70;1.00
6756;DHT22;3415;51.148;7.014;2022-12-18T07:22:37;-2.70;1.00
6756;DHT22;3415;51.148;7.014;2022-12-18T07:25:07;-2.60;1.00
6756;DHT22;3415;51.148;7.014;2022-12-18T07:27:34;-2.60;1.00
6756;DHT22;3415;51.148;7.014;2022-12-18T07:30:00;-2.60;1.00
6756;DHT22;3415;51.148;7.014;2022-12-18T07:32:27;0.10;1.00
6756;DHT22;3415;51.148;7.014;2022-12-18T07:34:54;-2.70;1.00
6756;DHT22;3415;51.148;7.014;2022-12-18T07:37:21;-2.70;1.00
6756;DHT22;3415;51.148;7.014;2022-12-18T07:39:48;-2.80;1.00
6756;DHT22;3415;51.148;7.014;2022-12-18T07:42:16;-2.70;1.00
6756;DHT22;3415;51.148;7.014;2022-12-18T07:44:58;-2.70;1.00
6756;DHT22;3415;51.148;7.014;2022-12-18T07:47:25;-2.50;1.00
6756;DHT22;3415;51.148;7.014;2022-12-18T07:49:52;-2.50;1.00
6756;DHT22;3415;51.148;7.014;2022-12-18T07:54:46;-2.50;1.00
6756;DHT22;3415;51.148;7.014;2022-12-18T07:57:15;-2.50;1.00
6756;DHT22;3415;51.148;7.014;2022-12-18T08:02:10;-2.40;1.00
6756;DHT22;3415;51.148;7.014;2022-12-18T08:04:37;-2.50;1.00
6756;DHT22;3415;51.148;7.014;2022-12-18T08:07:03;-2.40;1.00
6756;DHT22;3415;51.148;7.014;2022-12-18T08:09:30;-2.30;1.00
6756;DHT22;3415;51.148;7.014;2022-12-18T08:11:57;-2.30;1.00
6756;DHT22;3415;51.148;7.014;2022-12-18T08:14:25;-2.30;1.00
6756;DHT22;3415;51.148;7.014;2022-12-18T08:16:52;-2.30;1.00
6756;DHT22;3415;51.148;7.014;2022-12-18T08:19:19;-2.30;1.00
6756;DHT22;3415;51.148;7.014;2022-12-18T08:21:45;-2.30;1.00
6756;DHT22;3415;51.148;7.014;2022-12-18T08:24:12;-2.20;1.00
6756;DHT22;3415;51.148;7.014;2022-12-18T08:29:08;-2.10;1.00
6756;DHT22;3415;51.148;7.014;2022-12-18T08:31:36;-1.90;1.00
6756;DHT22;3415;51.148;7.014;2022-12-18T08:34:03;-1.90;1.00
6756;DHT22;3415;51.148;7.014;2022-12-18T08:36:30;-1.90;1.00
6756;DHT22;3415;51.148;7.014;2022-12-18T08:38:57;-1.90;1.00
6756;DHT22;3415;51.148;7.014;2022-12-18T08:41:24;-1.60;1.00
6756;DHT22;3415;51.148;7.014;2022-12-18T08:43:51;-1.50;1.00
6756;DHT22;3415;51.148;7.014;2022-12-18T08:46:38;-1.30;1.00
6756;DHT22;3415;51.148;7.014;2022-12-18T08:49:05;-1.30;1.00
6756;DHT22;3415;51.148;7.014;2022-12-18T08:51:33;-1.20;1.00
6756;DHT22;3415;51.148;7.014;2022-12-18T08:54:00;-1.10;1.00
6756;DHT22;3415;51.148;7.014;2022-12-18T08:56:27;-1.00;1.00
6756;DHT22;3415;51.148;7.014;2022-12-18T08:58:55;-0.60;1.00
6756;DHT22;3415;51.148;7.014;2022-12-18T09:01:23;-0.60;1.00
6756;DHT22;3415;51.148;7.014;2022-12-18T09:03:51;0.30;1.00
6756;DHT22;3415;51.148;7.014;2022-12-18T09:06:22;0.20;1.00
6756;DHT22;3415;51.148;7.014;2022-12-18T09:08:49;1.20;1.00
6756;DHT22;3415;51.148;7.014;2022-12-18T09:11:21;1.70;1.00
6756;DHT22;3415;51.148;7.014;2022-12-18T09:13:48;2.20;1.00
6756;DHT22;3415;51.148;7.014;2022-12-18T09:16:16;1.80;1.00
6756;DHT22;3415;51.148;7.014;2022-12-18T09:21:13;0.60;1.00
6756;DHT22;3415;51.148;7.014;2022-12-18T09:23:41;0.50;1.00
6756;DHT22;3415;51.148;7.014;2022-12-18T09:26:07;0.70;1.00
6756;DHT22;3415;51.148;7.014;2022-12-18T09:28:34;0.60;1.00
6756;DHT22;3415;51.148;7.014;2022-12-18T09:31:05;1.10;1.00
6756;DHT22;3415;51.148;7.014;2022-12-18T09:33:33;2.20;1.00
6756;DHT22;3415;51.148;7.014;2022-12-18T09:36:01;2.30;1.00
6756;DHT22;3415;51.148;7.014;2022-12-18T09:38:30;2.20;1.00
6756;DHT22;3415;51.148;7.014;2022-12-18T09:41:00;2.20;1.00
6756;DHT22;3415;51.148;7.014;2022-12-18T09:43:48;1.60;1.00
6756;DHT22;3415;51.148;7.014;2022-12-18T09:46:19;1.50;1.00
6756;DHT22;3415;51.148;7.014;2022-12-18T09:48:49;1.40;1.00
6756;DHT22;3415;51.148;7.014;2022-12-18T09:51:24;1.50;1.00
6756;DHT22;3415;51.148;7.014;2022-12-18T09:53:58;1.80;1.00
6756;DHT22;3415;51.148;7.014;2022-12-18T09:56:28;2.10;1.00
6756;DHT22;3415;51.148;7.014;2022-12-18T09:58:58;1.90;1.00
6756;DHT22;3415;51.148;7.014;2022-12-18T10:01:27;1.80;99.90
6756;DHT22;3415;51.148;7.014;2022-12-18T10:03:54;1.80;99.90
6756;DHT22;3415;51.148;7.014;2022-12-18T10:06:26;1.70;99.90
6756;DHT22;3415;51.148;7.014;2022-12-18T10:09:00;1.50;99.90
6756;DHT22;3415;51.148;7.014;2022-12-18T10:11:37;1.50;99.90
6756;DHT22;3415;51.148;7.014;2022-12-18T10:14:09;1.50;99.90
6756;DHT22;3415;51.148;7.014;2022-12-18T10:16:49;1.30;99.90
6756;DHT22;3415;51.148;7.014;2022-12-18T10:19:30;1.30;99.90
6756;DHT22;3415;51.148;7.014;2022-12-18T10:22:03;1.30;99.90
6756;DHT22;3415;51.148;7.014;2022-12-18T10:24:42;1.40;99.90
6756;DHT22;3415;51.148;7.014;2022-12-18T10:27:14;1.40;99.90
6756;DHT22;3415;51.148;7.014;2022-12-18T10:29:42;1.50;99.90
6756;DHT22;3415;51.148;7.014;2022-12-18T10:32:15;1.50;99.90
6756;DHT22;3415;51.148;7.014;2022-12-18T10:34:45;1.60;99.90
6756;DHT22;3415;51.148;7.014;2022-12-18T10:37:15;2.00;99.90
6756;DHT22;3415;51.148;7.014;2022-12-18T10:39:45;2.00;99.90
6756;DHT22;3415;51.148;7.014;2022-12-18T10:42:17;2.00;99.90
6756;DHT22;3415;51.148;7.014;2022-12-18T10:44:44;2.00;99.90
6756;DHT22;3415;51.148;7.014;2022-12-18T10:47:15;2.00;99.90
6756;DHT22;3415;51.148;7.014;2022-12-18T10:49:49;2.10;99.90
6756;DHT22;3415;51.148;7.014;2022-12-18T10:52:18;2.20;99.90
6756;DHT22;3415;51.148;7.014;2022-12-18T10:54:49;2.10;99.90
6756;DHT22;3415;51.148;7.014;2022-12-18T10:57:29;2.10;99.90
6756;DHT22;3415;51.148;7.014;2022-12-18T10:59:57;2.10;99.90
6756;DHT22;3415;51.148;7.014;2022-12-18T11:02:33;2.30;99.90
6756;DHT22;3415;51.148;7.014;2022-12-18T11:05:01;2.10;99.90
6756;DHT22;3415;51.148;7.014;2022-12-18T11:07:47;2.20;99.90
6756;DHT22;3415;51.148;7.014;2022-12-18T11:10:18;2.10;99.90
6756;DHT22;3415;51.148;7.014;2022-12-18T11:12:45;2.20;99.90
6756;DHT22;3415;51.148;7.014;2022-12-18T11:15:16;2.40;99.90
6756;DHT22;3415;51.148;7.014;2022-12-18T11:17:48;2.30;99.90
6756;DHT22;3415;51.148;7.014;2022-12-18T11:20:29;2.20;99.90
6756;DHT22;3415;51.148;7.014;2022-12-18T11:22:58;2.20;99.90
6756;DHT22;3415;51.148;7.014;2022-12-18T11:25:30;2.30;99.90
6756;DHT22;3415;51.148;7.014;2022-12-18T11:27:59;2.40;99.90
6756;DHT22;3415;51.148;7.014;2022-12-18T11:30:28;2.40;99.90
6756;DHT22;3415;51.148;7.014;2022-12-18T11:33:04;2.40;99.90
6756;DHT22;3415;51.148;7.014;2022-12-18T11:35:38;2.40;99.90
6756;DHT22;3415;51.148;7.014;2022-12-18T11:38:12;2.70;99.90
6756;DHT22;3415;51.148;7.014;2022-12-18T11:40:49;2.70;99.90
6756;DHT22;3415;51.148;7.014;2022-12-18T11:43:21;2.70;99.90
6756;DHT22;3415;51.148;7.014;2022-12-18T11:45:53;2.40;99.90
6756;DHT22;3415;51.148;7.014;2022-12-18T11:48:23;2.10;99.90
6756;DHT22;3415;51.148;7.014;2022-12-18T11:50:53;1.90;99.90
6756;DHT22;3415;51.148;7.014;2022-12-18T11:53:21;1.90;99.90
6756;DHT22;3415;51.148;7.014;2022-12-18T11:55:56;1.90;99.90
6756;DHT22;3415;51.148;7.014;2022-12-18T11:58:41;1.80;99.90
6756;DHT22;3415;51.148;7.014;2022-12-18T12:01:20;1.60;99.90
6756;DHT22;3415;51.148;7.014;2022-12-18T12:04:01;1.50;99.90
6756;DHT22;3415;51.148;7.014;2022-12-18T12:06:39;1.50;99.90
6756;DHT22;3415;51.148;7.014;2022-12-18T12:09:16;1.40;99.90
6756;DHT22;3415;51.148;7.014;2022-12-18T12:11:58;1.50;99.90
6756;DHT22;3415;51.148;7.014;2022-12-18T12:14:39;1.50;99.90
6756;DHT22;3415;51.148;7.014;2022-12-18T12:17:14;1.30;99.90
6756;DHT22;3415;51.148;7.014;2022-12-18T12:19:50;1.30;99.90
6756;DHT22;3415;51.148;7.014;2022-12-18T12:22:24;1.30;99.90
6756;DHT22;3415;51.148;7.014;2022-12-18T12:25:02;1.30;99.90
6756;DHT22;3415;51.148;7.014;2022-12-18T12:27:39;1.10;99.90
6756;DHT22;3415;51.148;7.014;2022-12-18T12:30:14;1.10;99.90
6756;DHT22;3415;51.148;7.014;2022-12-18T12:32:55;1.20;99.90
6756;DHT22;3415;51.148;7.014;2022-12-18T12:35:34;1.20;99.90
6756;DHT22;3415;51.148;7.014;2022-12-18T12:38:08;1.20;99.90
6756;DHT22;3415;51.148;7.014;2022-12-18T12:40:39;1.00;99.90
6756;DHT22;3415;51.148;7.014;2022-12-18T12:43:22;1.10;99.90
6756;DHT22;3415;51.148;7.014;2022-12-18T12:45:53;1.10;99.90
6756;DHT22;3415;51.148;7.014;2022-12-18T12:48:31;1.10;99.90
6756;DHT22;3415;51.148;7.014;2022-12-18T12:51:01;0.80;99.90
6756;DHT22;3415;51.148;7.014;2022-12-18T12:53:32;0.90;99.90
6756;DHT22;3415;51.148;7.014;2022-12-18T12:56:01;0.80;99.90
6756;DHT22;3415;51.148;7.014;2022-12-18T12:58:34;0.80;99.90
6756;DHT22;3415;51.148;7.014;2022-12-18T13:01:13;0.80;99.90
6756;DHT22;3415;51.148;7.014;2022-12-18T13:03:48;0.80;99.90
6756;DHT22;3415;51.148;7.014;2022-12-18T13:06:29;0.80;99.90
6756;DHT22;3415;51.148;7.014;2022-12-18T13:09:00;0.80;99.90
6756;DHT22;3415;51.148;7.014;2022-12-18T13:11:32;0.80;99.90
6756;DHT22;3415;51.148;7.014;2022-12-18T13:14:39;0.80;99.90
6756;DHT22;3415;51.148;7.014;2022-12-18T13:17:29;0.80;99.90
6756;DHT22;3415;51.148;7.014;2022-12-18T13:20:08;0.70;99.90
6756;DHT22;3415;51.148;7.014;2022-12-18T13:22:37;0.80;1.00
6756;DHT22;3415;51.148;7.014;2022-12-18T13:25:35;0.70;99.90
6756;DHT22;3415;51.148;7.014;2022-12-18T13:28:09;0.70;99.90
6756;DHT22;3415;51.148;7.014;2022-12-18T13:30:50;0.70;99.90
6756;DHT22;3415;51.148;7.014;2022-12-18T13:33:47;0.60;99.90
6756;DHT22;3415;51.148;7.014;2022-12-18T13:36:23;0.70;99.90
6756;DHT22;3415;51.148;7.014;2022-12-18T13:41:52;0.70;99.90
6756;DHT22;3415;51.148;7.014;2022-12-18T13:44:28;0.60;99.90
6756;DHT22;3415;51.148;7.014;2022-12-18T13:46:58;0.60;99.90
6756;DHT22;3415;51.148;7.014;2022-12-18T13:49:30;0.50;99.90
6756;DHT22;3415;51.148;7.014;2022-12-18T13:51:59;0.50;99.90
6756;DHT22;3415;51.148;7.014;2022-12-18T13:54:30;0.60;1.00
6756;DHT22;3415;51.148;7.014;2022-12-18T13:56:59;0.50;1.00
6756;DHT22;3415;51.148;7.014;2022-12-18T13:59:32;0.50;1.00
6756;DHT22;3415;51.148;7.014;2022-12-18T14:02:09;0.50;1.00
6756;DHT22;3415;51.148;7.014;2022-12-18T14:04:39;0.50;1.00
6756;DHT22;3415;51.148;7.014;2022-12-18T14:07:10;0.50;1.00
6756;DHT22;3415;51.148;7.014;2022-12-18T14:09:42;0.50;1.00
6756;DHT22;3415;51.148;7.014;2022-12-18T14:12:15;0.40;99.90
6756;DHT22;3415;51.148;7.014;2022-12-18T14:15:00;0.40;1.00
6756;DHT22;3415;51.148;7.014;2022-12-18T14:17:28;0.30;99.90
6756;DHT22;3415;51.148;7.014;2022-12-18T14:22:25;0.40;99.90
6756;DHT22;3415;51.148;7.014;2022-12-18T14:25:22;0.40;1.00
6756;DHT22;3415;51.148;7.014;2022-12-18T14:27:51;0.40;99.90
6756;DHT22;3415;51.148;7.014;2022-12-18T14:30:30;0.40;1.00
6756;DHT22;3415;51.148;7.014;2022-12-18T14:33:03;0.40;1.00
6756;DHT22;3415;51.148;7.014;2022-12-18T14:35:30;3.30;1.00
6756;DHT22;3415;51.148;7.014;2022-12-18T14:38:10;0.40;1.00
6756;DHT22;3415;51.148;7.014;2022-12-18T14:43:04;0.40;1.00
6756;DHT22;3415;51.148;7.014;2022-12-18T14:45:39;0.40;1.00
6756;DHT22;3415;51.148;7.014;2022-12-18T14:48:16;0.40;1.00
6756;DHT22;3415;51.148;7.014;2022-12-18T14:50:43;0.40;1.00
6756;DHT22;3415;51.148;7.014;2022-12-18T14:53:23;3.00;1.00
6756;DHT22;3415;51.148;7.014;2022-12-18T14:58:17;0.30;1.00
6756;DHT22;3415;51.148;7.014;2022-12-18T15:03:18;0.30;1.00
6756;DHT22;3415;51.148;7.014;2022-12-18T15:08:30;0.20;1.00
6756;DHT22;3415;51.148;7.014;2022-12-18T15:10:57;0.10;1.00
6756;DHT22;3415;51.148;7.014;2022-12-18T15:13:24;0.20;1.00
6756;DHT22;3415;51.148;7.014;2022-12-18T15:15:52;0.20;1.00
6756;DHT22;3415;51.148;7.014;2022-12-18T15:18:27;0.10;1.00
6756;DHT22;3415;51.148;7.014;2022-12-18T15:20:57;0.10;1.00
6756;DHT22;3415;51.148;7.014;2022-12-18T15:23:27;0.10;1.00
6756;DHT22;3415;51.148;7.014;2022-12-18T15:25:59;0.00;1.00
6756;DHT22;3415;51.148;7.014;2022-12-18T15:28:29;0.00;1.00
6756;DHT22;3415;51.148;7.014;2022-12-18T15:31:00;0.00;1.00
6756;DHT22;3415;51.148;7.014;2022-12-18T15:33:31;1.10;1.00
6756;DHT22;3415;51.148;7.014;2022-12-18T15:35:58;0.00;1.00
6756;DHT22;3415;51.148;7.014;2022-12-18T15:40:53;-0.10;1.00
6756;DHT22;3415;51.148;7.014;2022-12-18T15:43:21;-0.10;1.00
6756;DHT22;3415;51.148;7.014;2022-12-18T15:46:01;-0.10;1.00
6756;DHT22;3415;51.148;7.014;2022-12-18T15:48:29;-0.10;1.00
6756;DHT22;3415;51.148;7.014;2022-12-18T15:50:57;1.50;1.00
6756;DHT22;3415;51.148;7.014;2022-12-18T15:53:25;0.20;1.00
6756;DHT22;3415;51.148;7.014;2022-12-18T15:55:54;-0.20;1.00
6756;DHT22;3415;51.148;7.014;2022-12-18T15:58:38;-0.20;1.00
6756;DHT22;3415;51.148;7.014;2022-12-18T16:01:05;-0.20;1.00
6756;DHT22;3415;51.148;7.014;2022-12-18T16:03:35;-0.20;1.00
6756;DHT22;3415;51.148;7.014;2022-12-18T16:10:56;-0.20;1.00
6756;DHT22;3415;51.148;7.014;2022-12-18T16:18:18;-0.20;1.00
6756;DHT22;3415;51.148;7.014;2022-12-18T16:20:46;-0.20;1.00
6756;DHT22;3415;51.148;7.014;2022-12-18T16:23:13;-0.20;1.00
6756;DHT22;3415;51.148;7.014;2022-12-18T16:25:40;-0.20;1.00
6756;DHT22;3415;51.148;7.014;2022-12-18T16:28:07;-0.30;1.00
6756;DHT22;3415;51.148;7.014;2022-12-18T16:30:34;-0.30;1.00
6756;DHT22;3415;51.148;7.014;2022-12-18T16:33:01;-0.30;1.00
6756;DHT22;3415;51.148;7.014;2022-12-18T16:35:27;-0.30;1.00
6756;DHT22;3415;51.148;7.014;2022-12-18T16:37:56;-0.30;1.00
6756;DHT22;3415;51.148;7.014;2022-12-18T16:40:22;-0.30;1.00
6756;DHT22;3415;51.148;7.014;2022-12-18T16:45:18;-0.40;1.00
6756;DHT22;3415;51.148;7.014;2022-12-18T16:47:45;-0.40;1.00
6756;DHT22;3415;51.148;7.014;2022-12-18T16:52:39;-0.40;1.00
6756;DHT22;3415;51.148;7.014;2022-12-18T16:55:08;-0.40;1.00
6756;DHT22;3415;51.148;7.014;2022-12-18T16:57:35;-0.40;1.00
6756;DHT22;3415;51.148;7.014;2022-12-18T17:00:03;-0.50;1.00
6756;DHT22;3415;51.148;7.014;2022-12-18T17:02:30;-0.50;1.00
6756;DHT22;3415;51.148;7.014;2022-12-18T17:04:57;-0.50;1.00
6756;DHT22;3415;51.148;7.014;2022-12-18T17:07:25;-0.50;1.00
6756;DHT22;3415;51.148;7.014;2022-12-18T17:09:52;-0.50;1.00
6756;DHT22;3415;51.148;7.014;2022-12-18T17:12:21;-0.50;1.00
6756;DHT22;3415;51.148;7.014;2022-12-18T17:14:48;-0.50;1.00
6756;DHT22;3415;51.148;7.014;2022-12-18T17:17:15;-0.50;1.00
6756;DHT22;3415;51.148;7.014;2022-12-18T17:22:09;-0.50;1.00
6756;DHT22;3415;51.148;7.014;2022-12-18T17:24:36;-0.60;1.00
6756;DHT22;3415;51.148;7.014;2022-12-18T17:27:03;-0.60;1.00
6756;DHT22;3415;51.148;7.014;2022-12-18T17:29:31;-0.60;1.00
6756;DHT22;3415;51.148;7.014;2022-12-18T17:31:58;-0.60;1.00
6756;DHT22;3415;51.148;7.014;2022-12-18T17:34:25;-0.60;1.00
6756;DHT22;3415;51.148;7.014;2022-12-18T17:39:19;-0.60;1.00
6756;DHT22;3415;51.148;7.014;2022-12-18T17:41:47;-0.90;1.00